EZS1025 LKPR-LFSB
Flight info
| Callsign | EZS1025 |
|---|---|
| Flight time | N/A |
| Altitude | 34000 |
| Route | BALTU DCT DONAD DCT OKG L984 KULOK Z715 ANELA N869 TEDGO T716 DENEL T715 RIGVI |
| Aircraft | A320/M-SDE2E3FGHIJ1RWXYZ/LB1 |
Departure
| Time | N/A |
|---|---|
| Airport | Václav Havel Airport Prague (LKPR) |
Arrival
| Time | 2026-05-01 08:07 |
|---|---|
| Airport | EuroAirport Basel–Mulhouse–Freiburg (LFSB) |
| Time | Latitude | Longitude | Altitude | Speed | Heading |
|---|---|---|---|---|---|
| 2026-05-01 07:23 | 49.18935 | 10.31144 | 34375 ft | 457 kts | 226° |
| 2026-05-01 07:24 | 49.12484 | 10.20465 | 34350 ft | 456 kts | 233° |
| 2026-05-01 07:24 | 49.09205 | 10.14170 | 34375 ft | 455 kts | 233° |
| 2026-05-01 07:25 | 49.05240 | 10.06661 | 34373 ft | 455 kts | 232° |
| 2026-05-01 07:25 | 49.01263 | 9.99178 | 34374 ft | 455 kts | 232° |
| 2026-05-01 07:26 | 48.97279 | 9.91700 | 34372 ft | 455 kts | 232° |
| 2026-05-01 07:26 | 48.93301 | 9.84231 | 34367 ft | 455 kts | 232° |
| 2026-05-01 07:27 | 48.89323 | 9.76792 | 34356 ft | 455 kts | 232° |
| 2026-05-01 07:27 | 48.85434 | 9.69538 | 34342 ft | 455 kts | 232° |
| 2026-05-01 07:28 | 48.81431 | 9.62090 | 34320 ft | 455 kts | 232° |
| 2026-05-01 07:28 | 48.77484 | 9.54772 | 34327 ft | 455 kts | 232° |
| 2026-05-01 07:29 | 48.73493 | 9.47399 | 34331 ft | 454 kts | 231° |
| 2026-05-01 07:29 | 48.69531 | 9.40086 | 33897 ft | 442 kts | 232° |
| 2026-05-01 07:29 | 48.67590 | 9.36503 | 33435 ft | 438 kts | 232° |
| 2026-05-01 07:30 | 48.65666 | 9.32960 | 32962 ft | 435 kts | 232° |
| 2026-05-01 07:30 | 48.63831 | 9.29349 | 32488 ft | 430 kts | 238° |
| 2026-05-01 07:30 | 48.62386 | 9.25437 | 32012 ft | 424 kts | 248° |
| 2026-05-01 07:30 | 48.61367 | 9.21285 | 31563 ft | 419 kts | 257° |
| 2026-05-01 07:31 | 48.60759 | 9.17013 | 31108 ft | 414 kts | 262° |
| 2026-05-01 07:31 | 48.59213 | 9.04311 | 29678 ft | 406 kts | 261° |
| 2026-05-01 07:32 | 48.58183 | 8.95995 | 28741 ft | 400 kts | 261° |
| 2026-05-01 07:32 | 48.57672 | 8.91889 | 28273 ft | 397 kts | 261° |
| 2026-05-01 07:33 | 48.56658 | 8.83765 | 27400 ft | 391 kts | 261° |
| 2026-05-01 07:33 | 48.56155 | 8.79747 | 26971 ft | 388 kts | 261° |
| 2026-05-01 07:33 | 48.55155 | 8.71796 | 26110 ft | 383 kts | 261° |
| 2026-05-01 07:34 | 48.54659 | 8.67863 | 25687 ft | 380 kts | 261° |
| 2026-05-01 07:34 | 48.53678 | 8.60075 | 24806 ft | 376 kts | 261° |
| 2026-05-01 07:34 | 48.53189 | 8.56205 | 24382 ft | 374 kts | 260° |
| 2026-05-01 07:35 | 48.52701 | 8.52375 | 23983 ft | 372 kts | 260° |
| 2026-05-01 07:35 | 48.52208 | 8.48550 | 23539 ft | 369 kts | 260° |
| 2026-05-01 07:35 | 48.51721 | 8.44761 | 23064 ft | 367 kts | 261° |
| 2026-05-01 07:35 | 48.51236 | 8.40989 | 22564 ft | 367 kts | 260° |
| 2026-05-01 07:36 | 48.50752 | 8.37225 | 22165 ft | 364 kts | 260° |
| 2026-05-01 07:36 | 48.50269 | 8.33487 | 21763 ft | 361 kts | 259° |
| 2026-05-01 07:36 | 48.49788 | 8.29790 | 21365 ft | 359 kts | 259° |
| 2026-05-01 07:36 | 48.49266 | 8.26118 | 20944 ft | 358 kts | 255° |
| 2026-05-01 07:37 | 48.47315 | 8.19266 | 20116 ft | 355 kts | 242° |
| 2026-05-01 07:37 | 48.46169 | 8.15996 | 19800 ft | 351 kts | 242° |
| 2026-05-01 07:37 | 48.45034 | 8.12739 | 19411 ft | 350 kts | 242° |
| 2026-05-01 07:38 | 48.43904 | 8.09494 | 19018 ft | 350 kts | 242° |
| 2026-05-01 07:38 | 48.42792 | 8.06305 | 18675 ft | 348 kts | 241° |
| 2026-05-01 07:38 | 48.40554 | 7.99904 | 18296 ft | 344 kts | 242° |
| 2026-05-01 07:39 | 48.39441 | 7.96720 | 17901 ft | 344 kts | 240° |
| 2026-05-01 07:39 | 48.38127 | 7.93742 | 17515 ft | 340 kts | 229° |
| 2026-05-01 07:39 | 48.34540 | 7.89335 | 16819 ft | 330 kts | 205° |
| 2026-05-01 07:40 | 48.32437 | 7.88024 | 16460 ft | 326 kts | 194° |
| 2026-05-01 07:40 | 48.30235 | 7.87340 | 16100 ft | 322 kts | 184° |
| 2026-05-01 07:40 | 48.28016 | 7.86972 | 15749 ft | 320 kts | 184° |
| 2026-05-01 07:40 | 48.25805 | 7.86600 | 15405 ft | 319 kts | 184° |
| 2026-05-01 07:41 | 48.23619 | 7.86229 | 15065 ft | 317 kts | 184° |
| 2026-05-01 07:41 | 48.21430 | 7.85854 | 14723 ft | 316 kts | 184° |
| 2026-05-01 07:41 | 48.17309 | 7.83761 | 14043 ft | 318 kts | 214° |
| 2026-05-01 07:42 | 48.15721 | 7.81471 | 13700 ft | 318 kts | 232° |
| 2026-05-01 07:42 | 48.14650 | 7.78581 | 13333 ft | 318 kts | 250° |
| 2026-05-01 07:42 | 48.14187 | 7.75361 | 12982 ft | 317 kts | 266° |
| 2026-05-01 07:42 | 48.14072 | 7.72079 | 12611 ft | 316 kts | 267° |
| 2026-05-01 07:43 | 48.13958 | 7.68801 | 12265 ft | 314 kts | 266° |
| 2026-05-01 07:43 | 48.13840 | 7.65553 | 11937 ft | 312 kts | 266° |
| 2026-05-01 07:43 | 48.13594 | 7.59121 | 11263 ft | 308 kts | 266° |
| 2026-05-01 07:44 | 48.12713 | 7.52959 | 10582 ft | 302 kts | 242° |
| 2026-05-01 07:44 | 48.10139 | 7.48184 | 9918 ft | 292 kts | 215° |
| 2026-05-01 07:45 | 48.08422 | 7.46609 | 9545 ft | 288 kts | 205° |
| 2026-05-01 07:45 | 48.06644 | 7.45238 | 9154 ft | 287 kts | 205° |
| 2026-05-01 07:45 | 48.04874 | 7.43869 | 8783 ft | 285 kts | 205° |
| 2026-05-01 07:45 | 48.03121 | 7.42509 | 8404 ft | 283 kts | 205° |
| 2026-05-01 07:46 | 48.01386 | 7.41161 | 8037 ft | 281 kts | 205° |
| 2026-05-01 07:46 | 47.99649 | 7.39811 | 7653 ft | 280 kts | 205° |
| 2026-05-01 07:46 | 47.96219 | 7.37145 | 6928 ft | 276 kts | 206° |
| 2026-05-01 07:47 | 47.94522 | 7.35830 | 6541 ft | 274 kts | 206° |
| 2026-05-01 07:47 | 47.92840 | 7.34527 | 6162 ft | 272 kts | 206° |
| 2026-05-01 07:47 | 47.91167 | 7.33233 | 5794 ft | 270 kts | 206° |
| 2026-05-01 07:47 | 47.89509 | 7.31953 | 5406 ft | 267 kts | 207° |
| 2026-05-01 07:48 | 47.86247 | 7.29438 | 4827 ft | 256 kts | 207° |
| 2026-05-01 07:48 | 47.84704 | 7.28248 | 4693 ft | 244 kts | 206° |
| 2026-05-01 07:48 | 47.83227 | 7.27110 | 4564 ft | 236 kts | 206° |
| 2026-05-01 07:49 | 47.81797 | 7.26006 | 4427 ft | 226 kts | 207° |
| 2026-05-01 07:49 | 47.79098 | 7.23936 | 4176 ft | 211 kts | 206° |
| 2026-05-01 07:49 | 47.77815 | 7.22954 | 4082 ft | 204 kts | 206° |
| 2026-05-01 07:50 | 47.76576 | 7.22003 | 4013 ft | 195 kts | 206° |
| 2026-05-01 07:50 | 47.74208 | 7.20187 | 3999 ft | 190 kts | 206° |
| 2026-05-01 07:50 | 47.73039 | 7.19290 | 4003 ft | 190 kts | 205° |
| 2026-05-01 07:51 | 47.71867 | 7.18406 | 3996 ft | 188 kts | 202° |
| 2026-05-01 07:51 | 47.70632 | 7.17850 | 4005 ft | 181 kts | 188° |
| 2026-05-01 07:51 | 47.69420 | 7.17752 | 3992 ft | 170 kts | 174° |
| 2026-05-01 07:52 | 47.67200 | 7.18717 | 3999 ft | 166 kts | 150° |
| 2026-05-01 07:52 | 47.66212 | 7.19595 | 4000 ft | 165 kts | 148° |
| 2026-05-01 07:52 | 47.65323 | 7.20657 | 3978 ft | 165 kts | 132° |
| 2026-05-01 07:53 | 47.64443 | 7.23883 | 3260 ft | 173 kts | 94° |
| 2026-05-01 07:53 | 47.64360 | 7.25642 | 3012 ft | 169 kts | 95° |
| 2026-05-01 07:53 | 47.64278 | 7.27371 | 2743 ft | 167 kts | 95° |
| 2026-05-01 07:53 | 47.64212 | 7.29066 | 2453 ft | 163 kts | 94° |
| 2026-05-01 07:54 | 47.64046 | 7.32331 | 2320 ft | 158 kts | 96° |
| 2026-05-01 07:55 | 47.63677 | 7.37183 | 2398 ft | 158 kts | 97° |
| 2026-05-01 07:55 | 47.63402 | 7.40409 | 2614 ft | 158 kts | 99° |
| 2026-05-01 07:56 | 47.62868 | 7.45511 | 4019 ft | 195 kts | 103° |
| 2026-05-01 07:56 | 47.60853 | 7.48087 | 3983 ft | 206 kts | 179° |
| 2026-05-01 07:57 | 47.59515 | 7.47487 | 4004 ft | 203 kts | 213° |
| 2026-05-01 07:57 | 47.58318 | 7.43886 | 4001 ft | 207 kts | 276° |
| 2026-05-01 07:58 | 47.59161 | 7.39802 | 4002 ft | 208 kts | 291° |
| 2026-05-01 07:58 | 47.61284 | 7.37219 | 4005 ft | 205 kts | 353° |
| 2026-05-01 07:59 | 47.64120 | 7.37429 | 4006 ft | 205 kts | 6° |
| 2026-05-01 07:59 | 47.66974 | 7.37738 | 4006 ft | 205 kts | 5° |
| 2026-05-01 08:00 | 47.72329 | 7.39724 | 3296 ft | 200 kts | 52° |
| 2026-05-01 08:01 | 47.71525 | 7.44180 | 2991 ft | 162 kts | 154° |
| 2026-05-01 08:01 | 47.70512 | 7.44882 | 2804 ft | 160 kts | 152° |
| 2026-05-01 08:01 | 47.69509 | 7.45582 | 2601 ft | 159 kts | 153° |
| 2026-05-01 08:02 | 47.67513 | 7.46977 | 2175 ft | 158 kts | 153° |
| 2026-05-01 08:02 | 47.66514 | 7.47674 | 1959 ft | 159 kts | 153° |
| 2026-05-01 08:03 | 47.64503 | 7.49064 | 1529 ft | 160 kts | 142° |
| 2026-05-01 08:03 | 47.63773 | 7.50272 | 1354 ft | 154 kts | 124° |
| 2026-05-01 08:03 | 47.62600 | 7.52856 | 1337 ft | 149 kts | 122° |
| 2026-05-01 08:04 | 47.61524 | 7.55467 | 1458 ft | 149 kts | 104° |
| 2026-05-01 08:04 | 47.61629 | 7.58516 | 1654 ft | 151 kts | 90° |
| 2026-05-01 08:05 | 47.60391 | 7.60559 | 1725 ft | 149 kts | 182° |
| 2026-05-01 08:05 | 47.59505 | 7.59859 | 1775 ft | 150 kts | 235° |
| 2026-05-01 08:05 | 47.59332 | 7.58387 | 1604 ft | 149 kts | 283° |
| 2026-05-01 08:06 | 47.59349 | 7.55430 | 1153 ft | 146 kts | 255° |
| 2026-05-01 08:06 | 47.58937 | 7.52620 | 892 ft | 116 kts | 257° |
| 2026-05-01 08:07 | 47.58807 | 7.51763 | 895 ft | 13 kts | 270° |
| 2026-05-01 08:07 | 47.58961 | 7.51691 | 886 ft | 16 kts | 39° |
| 2026-05-01 08:08 | 47.59044 | 7.51813 | 886 ft | 17 kts | 45° |
| 2026-05-01 08:08 | 47.59207 | 7.52056 | 886 ft | 19 kts | 45° |
| 2026-05-01 08:09 | 47.59365 | 7.52463 | 888 ft | 18 kts | 65° |
| 2026-05-01 08:09 | 47.59400 | 7.52575 | 892 ft | 17 kts | 65° |
| 2026-05-01 08:09 | 47.59451 | 7.52743 | 891 ft | 20 kts | 66° |
| 2026-05-01 08:10 | 47.59596 | 7.52840 | 887 ft | 13 kts | 41° |
| 2026-05-01 08:10 | 47.59735 | 7.53062 | 886 ft | 11 kts | 8° |
| 2026-05-01 08:11 | 47.59798 | 7.53179 | 886 ft | 0 kts | 65° |